Time;durP1;ratioP1;P1;durP2;ratioP2;P2;SDS_P1;SDS_P2;PMS_P1;PMS_P2;Temp;Humidity;BMP_temperature;BMP_pressure;BME280_temperature;BME280_humidity;BME280_pressure;Samples;Min_cycle;Max_cycle;Signal;HPM_P1;HPM_P2
2021/12/17 00:00:58;;;;;;;50.42;28.55;;;;;;;;;;5037179;28;97113;-76
2021/12/17 00:03:43;;;;;;;57.50;29.25;;;;;;;;;;5015327;28;96545;-75
2021/12/17 00:08:37;;;;;;;58.58;31.10;;;;;;;;;;5034048;28;97332;-76
2021/12/17 00:11:05;;;;;;;59.65;30.88;;;;;;;;;;5035437;28;95354;-75
2021/12/17 00:13:32;;;;;;;67.95;31.20;;;;;;;;;;5034205;28;96870;-76
2021/12/17 00:15:58;;;;;;;67.10;31.73;;;;;;;;;;5034125;28;97597;-76
2021/12/17 00:18:41;;;;;;;65.95;29.92;;;;;;;;;;5034602;27;95304;-76
2021/12/17 00:43:56;;;;;;;65.15;30.05;;;;;;;;;;5034724;27;95110;-77
2021/12/17 00:48:47;;;;;;;71.45;31.23;;;;;;;;;;5035130;28;97060;-77
2021/12/17 00:53:44;;;;;;;65.47;30.75;;;;;;;;;;5034781;28;95266;-77
2021/12/17 00:56:10;;;;;;;66.45;31.00;;;;;;;;;;5034214;27;97423;-77
2021/12/17 00:58:36;;;;;;;67.82;30.25;;;;;;;;;;5034092;27;97686;-77
2021/12/17 01:01:03;;;;;;;63.65;30.60;;;;;;;;;;5034229;27;95373;-77
2021/12/17 01:03:29;;;;;;;51.50;27.77;;;;;;;;;;5034321;27;96551;-77
2021/12/17 01:05:56;;;;;;;60.05;29.25;;;;;;;;;;5032812;27;96967;-77
2021/12/17 01:08:22;;;;;;;60.03;29.77;;;;;;;;;;5037639;28;95441;-77
2021/12/17 01:10:51;;;;;;;64.10;31.23;;;;;;;;;;5033938;27;97513;-77
2021/12/17 01:13:17;;;;;;;61.85;30.92;;;;;;;;;;5033951;27;95377;-77
2021/12/17 01:15:43;;;;;;;63.55;30.88;;;;;;;;;;5034777;27;97314;-77
2021/12/17 01:18:14;;;;;;;62.22;29.58;;;;;;;;;;5033482;28;97327;-77
2021/12/17 01:35:21;;;;;;;59.97;30.02;;;;;;;;;;5033479;27;97142;-77
2021/12/17 01:37:02;;;;;;;69.75;28.63;;;;;;;;;;5034413;27;97065;-77
2021/12/17 01:42:07;;;;;;;71.28;29.83;;;;;;;;;;5033769;27;95198;-77
2021/12/17 01:44:34;;;;;;;78.30;29.88;;;;;;;;;;5034084;28;96863;-77
2021/12/17 01:47:01;;;;;;;82.20;30.52;;;;;;;;;;5033165;28;97604;-76
2021/12/17 02:00:44;;;;;;;84.60;29.90;;;;;;;;;;5032929;28;96263;-76
2021/12/17 02:03:11;;;;;;;85.45;31.42;;;;;;;;;;5033374;27;95351;-76
2021/12/17 02:05:38;;;;;;;91.53;33.22;;;;;;;;;;5033704;27;97100;-76
2021/12/17 02:08:05;;;;;;;107.10;35.70;;;;;;;;;;5032877;28;97285;-76
2021/12/17 02:19:26;;;;;;;110.03;37.28;;;;;;;;;;5033159;27;96983;-76
2021/12/17 02:31:34;;;;;;;153.60;46.47;;;;;;;;;;5033084;27;95066;-76
2021/12/17 02:34:04;;;;;;;171.95;48.67;;;;;;;;;;5032875;28;96836;-76
2021/12/17 02:36:33;;;;;;;167.95;48.33;;;;;;;;;;5031400;28;97226;-77
2021/12/17 02:47:18;;;;;;;163.60;44.97;;;;;;;;;;5032931;28;97273;-76
2021/12/17 02:49:45;;;;;;;169.65;46.92;;;;;;;;;;5032275;28;97266;-76
2021/12/17 02:52:13;;;;;;;138.18;44.85;;;;;;;;;;5032434;28;95277;-76
2021/12/17 02:54:39;;;;;;;140.32;44.33;;;;;;;;;;5032823;28;96935;-76
2021/12/17 02:57:08;;;;;;;120.00;37.08;;;;;;;;;;5031967;27;97716;-76
2021/12/17 02:59:35;;;;;;;118.80;37.72;;;;;;;;;;5031924;28;95336;-77
2021/12/17 03:02:01;;;;;;;129.75;42.70;;;;;;;;;;5035514;27;97070;-76
2021/12/17 03:04:29;;;;;;;134.13;43.67;;;;;;;;;;5032138;27;95243;-76
2021/12/17 03:06:57;;;;;;;131.20;41.80;;;;;;;;;;5032747;28;97319;-76
2021/12/17 03:09:28;;;;;;;125.65;41.33;;;;;;;;;;5032343;28;96083;-76
2021/12/17 03:11:54;;;;;;;136.77;44.25;;;;;;;;;;5030598;28;95130;-76
2021/12/17 03:14:20;;;;;;;139.55;43.65;;;;;;;;;;5032291;28;96902;-76
2021/12/17 03:16:59;;;;;;;80.13;28.58;;;;;;;;;;5032042;27;97288;-76
2021/12/17 03:24:55;;;;;;;108.22;36.75;;;;;;;;;;5035066;27;97414;-77
2021/12/17 03:27:21;;;;;;;106.97;35.88;;;;;;;;;;5032029;27;97108;-77
2021/12/17 03:29:48;;;;;;;87.30;32.72;;;;;;;;;;5032404;28;97335;-77
2021/12/17 03:32:14;;;;;;;104.03;32.75;;;;;;;;;;5031043;28;95294;-77
2021/12/17 03:34:41;;;;;;;100.15;37.65;;;;;;;;;;5032469;27;97342;-76
2021/12/17 03:37:07;;;;;;;102.22;36.22;;;;;;;;;;5031816;28;97308;-76
2021/12/17 03:39:37;;;;;;;114.20;38.47;;;;;;;;;;5031803;28;95363;-77
2021/12/17 03:42:06;;;;;;;94.80;29.20;;;;;;;;;;5031996;27;96857;-77
2021/12/17 03:44:33;;;;;;;74.43;25.95;;;;;;;;;;5032086;28;97342;-76
2021/12/17 03:47:00;;;;;;;89.85;30.15;;;;;;;;;;5035235;27;95456;-76
2021/12/17 03:49:26;;;;;;;113.05;34.72;;;;;;;;;;5031697;28;97401;-77
2021/12/17 03:52:04;;;;;;;105.60;33.15;;;;;;;;;;5031968;27;95308;-77
2021/12/17 03:54:32;;;;;;;131.98;37.72;;;;;;;;;;5031749;27;97230;-76
2021/12/17 03:56:59;;;;;;;128.40;37.08;;;;;;;;;;5030608;28;97169;-77
2021/12/17 03:59:25;;;;;;;112.28;34.35;;;;;;;;;;5031992;28;95465;-77
2021/12/17 04:01:52;;;;;;;110.25;34.10;;;;;;;;;;5031622;28;96854;-77
2021/12/17 04:04:18;;;;;;;115.95;35.30;;;;;;;;;;5011151;28;97366;-76
2021/12/17 04:06:44;;;;;;;129.02;35.65;;;;;;;;;;5011473;28;95316;-77
2021/12/17 04:09:11;;;;;;;98.72;31.13;;;;;;;;;;5014470;28;96821;-76
2021/12/17 04:11:37;;;;;;;95.70;30.67;;;;;;;;;;5011880;28;95318;-77
2021/12/17 04:14:04;;;;;;;89.68;29.13;;;;;;;;;;5011252;28;97034;-76
2021/12/17 04:16:32;;;;;;;71.45;26.10;;;;;;;;;;5011624;28;97448;-76
2021/12/17 04:18:58;;;;;;;68.97;22.23;;;;;;;;;;5010379;28;95252;-76
2021/12/17 04:21:27;;;;;;;74.10;25.95;;;;;;;;;;5011080;28;96909;-79
2021/12/17 04:23:54;;;;;;;77.53;26.85;;;;;;;;;;5011013;28;97553;-76
2021/12/17 04:26:21;;;;;;;88.72;29.02;;;;;;;;;;5011559;28;95776;-76
2021/12/17 04:28:50;;;;;;;90.55;28.88;;;;;;;;;;5003409;28;97041;-78
2021/12/17 04:31:23;;;;;;;92.78;28.25;;;;;;;;;;5032884;28;95416;-77
2021/12/17 04:33:49;;;;;;;92.65;27.27;;;;;;;;;;5031437;28;97097;-78
2021/12/17 04:36:21;;;;;;;87.20;27.25;;;;;;;;;;5030645;28;97311;-77
2021/12/17 04:38:48;;;;;;;89.75;26.85;;;;;;;;;;5031708;28;95119;-78
2021/12/17 04:44:05;;;;;;;87.55;26.08;;;;;;;;;;5034087;28;97352;-78
2021/12/17 04:46:51;;;;;;;86.72;25.90;;;;;;;;;;5035080;27;95172;-77
2021/12/17 04:57:35;;;;;;;73.35;22.42;;;;;;;;;;5034290;27;96139;-77
2021/12/17 05:00:22;;;;;;;78.10;23.23;;;;;;;;;;5034782;27;95304;-77
2021/12/17 05:02:52;;;;;;;73.43;21.23;;;;;;;;;;5034380;27;96692;-77
2021/12/17 05:05:20;;;;;;;76.82;21.27;;;;;;;;;;5034148;28;97299;-77
2021/12/17 05:07:52;;;;;;;67.10;20.20;;;;;;;;;;5034717;27;95232;-77
2021/12/17 05:18:46;;;;;;;58.30;16.38;;;;;;;;;;5033887;28;97501;-77
2021/12/17 05:21:14;;;;;;;72.13;17.40;;;;;;;;;;5034298;27;95159;-77
2021/12/17 05:23:43;;;;;;;68.90;17.90;;;;;;;;;;5034335;28;97141;-78
2021/12/17 05:26:11;;;;;;;63.35;16.75;;;;;;;;;;5033295;28;97808;-77
2021/12/17 05:28:37;;;;;;;65.05;16.17;;;;;;;;;;5034307;27;95298;-77
2021/12/17 05:31:04;;;;;;;57.95;14.80;;;;;;;;;;5033960;28;95550;-78
2021/12/17 05:33:30;;;;;;;45.80;13.45;;;;;;;;;;5032784;27;97447;-78
2021/12/17 05:35:57;;;;;;;45.92;13.75;;;;;;;;;;5034072;27;95273;-78
2021/12/17 05:38:24;;;;;;;47.42;13.55;;;;;;;;;;5036241;27;97298;-78
2021/12/17 05:40:52;;;;;;;43.47;12.32;;;;;;;;;;5029695;27;95421;-78
2021/12/17 05:43:18;;;;;;;42.63;13.05;;;;;;;;;;5031225;27;96823;-78
2021/12/17 05:48:20;;;;;;;41.30;12.57;;;;;;;;;;5033470;27;95493;-78
2021/12/17 05:50:48;;;;;;;50.03;13.70;;;;;;;;;;5033995;28;96909;-78
2021/12/17 05:53:14;;;;;;;41.13;14.02;;;;;;;;;;5028827;28;97659;-78
2021/12/17 05:55:41;;;;;;;53.13;13.60;;;;;;;;;;5029240;27;95150;-78
2021/12/17 05:58:08;;;;;;;46.72;13.60;;;;;;;;;;5021896;28;96835;-78
2021/12/17 06:00:35;;;;;;;45.80;12.88;;;;;;;;;;5036411;27;97259;-78
2021/12/17 06:03:02;;;;;;;45.50;14.25;;;;;;;;;;5030342;28;95753;-78
2021/12/17 06:05:29;;;;;;;41.95;13.82;;;;;;;;;;5032628;27;97287;-78
2021/12/17 06:07:55;;;;;;;64.22;16.52;;;;;;;;;;5031797;28;95349;-77
2021/12/17 06:10:22;;;;;;;60.58;17.52;;;;;;;;;;5032854;27;95946;-78
2021/12/17 06:12:49;;;;;;;52.53;15.85;;;;;;;;;;5033076;28;97388;-76
2021/12/17 06:15:17;;;;;;;57.13;14.80;;;;;;;;;;5032712;27;95189;-78
2021/12/17 06:17:43;;;;;;;51.05;14.70;;;;;;;;;;5027735;27;97016;-78
2021/12/17 06:20:12;;;;;;;46.50;13.00;;;;;;;;;;5035582;27;97690;-78
2021/12/17 06:22:38;;;;;;;64.22;18.90;;;;;;;;;;5036452;28;95132;-79
2021/12/17 06:25:06;;;;;;;58.53;15.63;;;;;;;;;;5032679;27;97338;-78
2021/12/17 06:27:32;;;;;;;46.50;11.68;;;;;;;;;;5032392;28;97237;-78
2021/12/17 06:29:58;;;;;;;53.42;13.07;;;;;;;;;;5033309;28;96839;-78
2021/12/17 06:32:25;;;;;;;59.33;13.85;;;;;;;;;;5031890;28;97286;-78
2021/12/17 06:34:51;;;;;;;54.53;13.65;;;;;;;;;;5031228;28;95314;-78
2021/12/17 06:37:18;;;;;;;68.60;13.27;;;;;;;;;;5031876;28;96892;-79
2021/12/17 06:39:45;;;;;;;80.88;13.63;;;;;;;;;;5031537;28;97352;-79
2021/12/17 06:42:11;;;;;;;72.28;13.85;;;;;;;;;;5032992;27;96600;-77
2021/12/17 06:44:38;;;;;;;76.60;15.98;;;;;;;;;;5031558;28;97399;-76
2021/12/17 06:47:24;;;;;;;79.97;15.65;;;;;;;;;;5028327;28;95247;-78
2021/12/17 06:49:58;;;;;;;80.88;14.88;;;;;;;;;;5030665;27;96737;-78
2021/12/17 07:06:10;;;;;;;98.63;18.25;;;;;;;;;;5034634;27;97036;-78
2021/12/17 07:09:28;;;;;;;102.25;17.15;;;;;;;;;;5031709;28;95233;-78
2021/12/17 07:17:10;;;;;;;106.47;18.05;;;;;;;;;;5030134;28;96023;-78
2021/12/17 07:17:38;;;;;;;85.35;16.67;;;;;;;;;;5030870;27;95318;-78
2021/12/17 07:23:06;;;;;;;95.88;16.77;;;;;;;;;;5031357;28;97431;-78
2021/12/17 07:28:55;;;;;;;68.10;14.25;;;;;;;;;;5031492;27;96909;-78
2021/12/17 15:59:06;;;;;;;22.17;11.63;;;;;;;;;;5067809;27;1332070;-75
2021/12/17 16:01:32;;;;;;;18.92;11.73;;;;;;;;;;5097851;27;97115;-74
2021/12/17 16:03:58;;;;;;;18.50;11.80;;;;;;;;;;5099225;27;95301;-74
2021/12/17 16:06:28;;;;;;;20.25;12.27;;;;;;;;;;5087498;27;96676;-74
2021/12/17 16:08:58;;;;;;;21.35;12.80;;;;;;;;;;5086850;27;97312;-72
2021/12/17 16:11:47;;;;;;;22.20;13.13;;;;;;;;;;5087530;27;95072;-74
2021/12/17 16:22:25;;;;;;;21.77;13.60;;;;;;;;;;5104051;27;97146;-74
2021/12/17 16:24:52;;;;;;;23.30;11.68;;;;;;;;;;5105651;27;95149;-74
2021/12/17 16:27:18;;;;;;;22.75;12.98;;;;;;;;;;5085725;27;96976;-74
2021/12/17 16:29:44;;;;;;;24.40;12.88;;;;;;;;;;5072112;27;97142;-74
2021/12/17 16:32:11;;;;;;;22.85;12.50;;;;;;;;;;5066368;27;95327;-74
2021/12/17 16:34:37;;;;;;;26.55;15.48;;;;;;;;;;5067897;27;96933;-74
2021/12/17 16:37:03;;;;;;;27.30;13.77;;;;;;;;;;5099567;27;97422;-74
2021/12/17 16:39:30;;;;;;;25.33;13.15;;;;;;;;;;5092350;27;95353;-74
2021/12/17 16:41:58;;;;;;;27.25;13.73;;;;;;;;;;5097422;27;96689;-74
2021/12/17 16:44:39;;;;;;;28.25;14.10;;;;;;;;;;5085054;27;95260;-74
2021/12/17 16:47:26;;;;;;;29.15;15.13;;;;;;;;;;5087625;27;96747;-74
2021/12/17 16:49:53;;;;;;;24.98;13.55;;;;;;;;;;5081861;27;97100;-74
2021/12/17 16:52:19;;;;;;;25.27;13.52;;;;;;;;;;5068288;27;95224;-74
2021/12/17 16:54:49;;;;;;;28.25;14.15;;;;;;;;;;5071493;27;97000;-74
2021/12/17 16:57:16;;;;;;;30.83;14.45;;;;;;;;;;5088132;27;97355;-75
2021/12/17 16:59:43;;;;;;;25.58;13.82;;;;;;;;;;5088506;27;95084;-74
2021/12/17 17:02:09;;;;;;;29.75;14.90;;;;;;;;;;5090691;27;95679;-74
2021/12/17 17:04:35;;;;;;;28.52;14.77;;;;;;;;;;5089700;27;97223;-74
2021/12/17 17:07:02;;;;;;;27.80;14.10;;;;;;;;;;5081064;27;96769;-74
2021/12/17 17:09:29;;;;;;;28.92;14.10;;;;;;;;;;5078271;27;98689;-74
2021/12/17 17:12:02;;;;;;;28.20;15.43;;;;;;;;;;5054998;27;95309;-74
2021/12/17 17:14:29;;;;;;;29.10;14.90;;;;;;;;;;5053272;27;97013;-74
2021/12/17 17:16:55;;;;;;;29.33;14.82;;;;;;;;;;5053704;27;97106;-73
2021/12/17 17:19:22;;;;;;;30.27;14.85;;;;;;;;;;5068638;27;95414;-74
2021/12/17 17:21:48;;;;;;;16.92;9.70;;;;;;;;;;5069952;27;96927;-74
2021/12/17 17:24:17;;;;;;;19.05;10.35;;;;;;;;;;5073328;27;96699;-74
2021/12/17 17:26:44;;;;;;;53.80;31.55;;;;;;;;;;5079142;27;95402;-74
2021/12/17 17:29:11;;;;;;;37.70;23.80;;;;;;;;;;5071454;27;96285;-74
2021/12/17 17:31:37;;;;;;;24.58;13.18;;;;;;;;;;5074095;27;95242;-74
2021/12/17 17:34:06;;;;;;;17.58;10.30;;;;;;;;;;5064501;27;96511;-73
2021/12/17 17:36:37;;;;;;;16.58;9.10;;;;;;;;;;5069269;27;97382;-74
2021/12/17 17:39:04;;;;;;;16.50;8.50;;;;;;;;;;5075431;27;96405;-74
2021/12/17 17:41:30;;;;;;;16.05;9.35;;;;;;;;;;5074675;27;96773;-74
2021/12/17 17:43:57;;;;;;;14.90;8.95;;;;;;;;;;5068696;27;97314;-74
2021/12/17 17:46:25;;;;;;;16.80;9.20;;;;;;;;;;5066228;27;95224;-74
2021/12/17 17:48:51;;;;;;;12.60;7.80;;;;;;;;;;5078208;27;96826;-74
2021/12/17 17:51:18;;;;;;;15.95;9.50;;;;;;;;;;5073728;27;95966;-74
2021/12/17 17:53:44;;;;;;;12.63;9.13;;;;;;;;;;5073206;27;96966;-74
2021/12/17 17:56:11;;;;;;;19.77;9.98;;;;;;;;;;5062419;27;96982;-74
2021/12/17 17:58:37;;;;;;;52.60;34.10;;;;;;;;;;5058107;27;96752;-74
2021/12/17 18:01:05;;;;;;;14.50;7.93;;;;;;;;;;5054190;27;96797;-74
2021/12/17 18:03:36;;;;;;;12.23;6.18;;;;;;;;;;5079019;27;97684;-74
2021/12/17 18:06:03;;;;;;;11.18;6.57;;;;;;;;;;5053836;27;96261;-74
2021/12/17 18:08:30;;;;;;;12.23;6.75;;;;;;;;;;5061241;27;97183;-73
2021/12/17 18:10:56;;;;;;;13.55;7.30;;;;;;;;;;5071349;27;96435;-74
2021/12/17 18:13:24;;;;;;;12.77;7.60;;;;;;;;;;5058367;27;96786;-74
2021/12/17 18:15:52;;;;;;;14.70;7.60;;;;;;;;;;5053960;27;97440;-73
2021/12/17 18:18:19;;;;;;;20.85;10.55;;;;;;;;;;5060560;27;95197;-73
2021/12/17 18:20:46;;;;;;;17.05;9.93;;;;;;;;;;5069548;27;97245;-73
2021/12/17 18:23:13;;;;;;;16.45;9.25;;;;;;;;;;5052123;27;97668;-73
2021/12/17 18:25:44;;;;;;;21.20;11.68;;;;;;;;;;5065521;27;96201;-75
2021/12/17 18:28:11;;;;;;;19.38;10.18;;;;;;;;;;5071668;27;96904;-73
2021/12/17 18:30:37;;;;;;;19.80;9.52;;;;;;;;;;5058817;27;97702;-73
2021/12/17 18:33:06;;;;;;;20.33;11.07;;;;;;;;;;5064772;27;96851;-74
2021/12/17 18:35:33;;;;;;;30.40;11.63;;;;;;;;;;5079858;27;97364;-75
2021/12/17 18:38:00;;;;;;;23.15;11.50;;;;;;;;;;5068322;27;95359;-73
2021/12/17 18:40:32;;;;;;;32.10;15.10;;;;;;;;;;5070535;27;96939;-73
2021/12/17 18:45:45;;;;;;;21.65;10.55;;;;;;;;;;5088506;27;95367;-73
2021/12/17 18:48:13;;;;;;;20.40;10.88;;;;;;;;;;5066339;27;96761;-73
2021/12/17 18:50:39;;;;;;;20.27;10.05;;;;;;;;;;5073237;27;97268;-73
2021/12/17 18:53:06;;;;;;;21.55;9.75;;;;;;;;;;5092571;27;95307;-73
2021/12/17 18:55:33;;;;;;;20.05;9.88;;;;;;;;;;5085794;27;97560;-73
2021/12/17 18:58:00;;;;;;;19.38;10.27;;;;;;;;;;5057786;27;95304;-73
2021/12/17 19:00:27;;;;;;;18.48;9.77;;;;;;;;;;5070711;27;96613;-73
2021/12/17 19:02:53;;;;;;;20.70;9.63;;;;;;;;;;5072363;27;95707;-74
2021/12/17 19:05:20;;;;;;;25.52;10.13;;;;;;;;;;5083787;27;96814;-73
2021/12/17 19:07:46;;;;;;;22.30;9.38;;;;;;;;;;5092401;27;96736;-73
2021/12/17 19:10:13;;;;;;;30.67;19.23;;;;;;;;;;5055414;27;96112;-73
2021/12/17 19:12:40;;;;;;;36.30;19.58;;;;;;;;;;5051983;27;95158;-73
2021/12/17 19:15:07;;;;;;;18.02;9.85;;;;;;;;;;5067091;27;96901;-73
2021/12/17 19:17:33;;;;;;;18.27;9.10;;;;;;;;;;5094102;27;96144;-73
2021/12/17 19:20:13;;;;;;;20.58;10.50;;;;;;;;;;5079104;27;96570;-73
2021/12/17 19:22:40;;;;;;;22.73;10.98;;;;;;;;;;5064893;27;96292;-73
2021/12/17 19:25:11;;;;;;;26.23;13.55;;;;;;;;;;5072390;27;95239;-74
2021/12/17 19:27:38;;;;;;;29.50;13.63;;;;;;;;;;5072246;27;97309;-74
2021/12/17 19:30:05;;;;;;;28.98;14.40;;;;;;;;;;5067785;27;96912;-73
2021/12/17 19:32:32;;;;;;;22.98;12.63;;;;;;;;;;5067865;27;95362;-74
2021/12/17 19:34:59;;;;;;;23.95;11.75;;;;;;;;;;5071152;27;96852;-72
2021/12/17 19:37:25;;;;;;;25.58;12.18;;;;;;;;;;5074258;27;97651;-72
2021/12/17 19:39:51;;;;;;;26.48;13.18;;;;;;;;;;5076691;27;96749;-73
2021/12/17 19:42:19;;;;;;;27.13;12.93;;;;;;;;;;5061264;27;97086;-74
2021/12/17 19:44:45;;;;;;;29.15;12.90;;;;;;;;;;5076818;27;95377;-73
2021/12/17 19:52:06;;;;;;;32.53;14.30;;;;;;;;;;5074785;27;95305;-74
2021/12/17 19:54:32;;;;;;;30.13;15.75;;;;;;;;;;5074665;27;96762;-74
2021/12/17 19:57:00;;;;;;;31.92;14.20;;;;;;;;;;5073438;27;97392;-74
2021/12/17 19:59:31;;;;;;;30.80;15.23;;;;;;;;;;5078569;27;95192;-73
2021/12/17 20:01:57;;;;;;;35.22;16.98;;;;;;;;;;5063854;27;97050;-74
2021/12/17 20:04:29;;;;;;;36.58;18.58;;;;;;;;;;5081406;27;95288;-74
2021/12/17 20:06:56;;;;;;;38.45;18.13;;;;;;;;;;5070468;27;96795;-74
2021/12/17 20:09:22;;;;;;;39.83;18.35;;;;;;;;;;5079555;27;97216;-74
2021/12/17 20:11:49;;;;;;;41.20;18.30;;;;;;;;;;5088323;27;95475;-74
2021/12/17 20:14:15;;;;;;;40.42;16.92;;;;;;;;;;5080512;27;96676;-74
2021/12/17 20:16:42;;;;;;;37.05;16.90;;;;;;;;;;5071360;27;97311;-73
2021/12/17 20:19:08;;;;;;;36.45;15.73;;;;;;;;;;5069520;27;96875;-74
2021/12/17 20:21:36;;;;;;;35.25;14.98;;;;;;;;;;5065724;27;97290;-74
2021/12/17 20:24:03;;;;;;;31.20;14.60;;;;;;;;;;5070365;27;95160;-74
2021/12/17 20:26:29;;;;;;;32.65;16.15;;;;;;;;;;5068170;27;96661;-74
2021/12/17 20:28:55;;;;;;;27.67;13.40;;;;;;;;;;5067171;27;97267;-72
2021/12/17 20:31:23;;;;;;;30.35;15.07;;;;;;;;;;5070729;27;95472;-74
2021/12/17 20:33:51;;;;;;;37.47;16.23;;;;;;;;;;5075427;27;96756;-74
2021/12/17 20:36:18;;;;;;;38.67;15.93;;;;;;;;;;5070728;27;97632;-74
2021/12/17 20:38:45;;;;;;;30.88;13.70;;;;;;;;;;5068990;27;95467;-74
2021/12/17 20:41:11;;;;;;;37.80;16.10;;;;;;;;;;5061426;27;97043;-74
2021/12/17 20:43:43;;;;;;;43.13;17.05;;;;;;;;;;5087129;27;96312;-74
2021/12/17 20:46:10;;;;;;;47.37;18.70;;;;;;;;;;5073071;27;96908;-74
2021/12/17 20:48:37;;;;;;;45.47;18.92;;;;;;;;;;5079845;27;96308;-73
2021/12/17 20:51:04;;;;;;;51.92;19.33;;;;;;;;;;5073975;27;96046;-74
2021/12/17 20:53:30;;;;;;;47.72;18.70;;;;;;;;;;5079647;27;96670;-74
2021/12/17 20:55:57;;;;;;;58.88;22.52;;;;;;;;;;5068971;27;96052;-74
2021/12/17 20:58:24;;;;;;;49.10;19.77;;;;;;;;;;5060988;27;96215;-73
2021/12/17 21:00:50;;;;;;;50.53;20.02;;;;;;;;;;5061889;27;96753;-73
2021/12/17 21:03:17;;;;;;;54.70;21.20;;;;;;;;;;5067163;27;96267;-75
2021/12/17 21:05:45;;;;;;;51.33;19.13;;;;;;;;;;5064473;27;96820;-75
2021/12/17 21:08:12;;;;;;;56.90;19.48;;;;;;;;;;5069740;27;96073;-72
2021/12/17 21:10:39;;;;;;;57.05;22.10;;;;;;;;;;5063167;27;95067;-73
2021/12/17 21:13:08;;;;;;;55.35;20.95;;;;;;;;;;5062490;27;97188;-74
2021/12/17 21:15:36;;;;;;;60.75;20.67;;;;;;;;;;5057806;27;96586;-73
2021/12/17 21:18:03;;;;;;;54.78;18.60;;;;;;;;;;5059033;27;95472;-74
2021/12/17 21:20:32;;;;;;;54.03;18.17;;;;;;;;;;5068087;27;96845;-73
2021/12/17 21:23:00;;;;;;;56.60;19.08;;;;;;;;;;5070778;27;97424;-74
2021/12/17 21:25:27;;;;;;;50.13;17.33;;;;;;;;;;5074447;27;95454;-74
2021/12/17 21:27:54;;;;;;;48.88;16.85;;;;;;;;;;5065744;27;97274;-74
2021/12/17 21:30:21;;;;;;;50.20;16.60;;;;;;;;;;5069869;27;95272;-73
2021/12/17 21:32:47;;;;;;;49.10;19.17;;;;;;;;;;5066878;27;96592;-74
2021/12/17 21:35:19;;;;;;;51.78;18.58;;;;;;;;;;5064508;27;96209;-74
2021/12/17 21:37:50;;;;;;;49.20;17.63;;;;;;;;;;5069212;27;95207;-74
2021/12/17 21:40:22;;;;;;;46.50;16.27;;;;;;;;;;5074811;27;96873;-74
2021/12/17 21:42:48;;;;;;;45.10;15.38;;;;;;;;;;5075375;27;97098;-74
2021/12/17 21:45:15;;;;;;;49.53;17.55;;;;;;;;;;5074742;27;95315;-74
2021/12/17 21:47:42;;;;;;;40.42;14.98;;;;;;;;;;5067994;27;96103;-74
2021/12/17 21:50:09;;;;;;;45.75;16.98;;;;;;;;;;5072143;27;95344;-74
2021/12/17 21:52:36;;;;;;;40.00;15.23;;;;;;;;;;5064707;27;96821;-74
2021/12/17 21:55:04;;;;;;;46.65;15.65;;;;;;;;;;5076555;27;97341;-74
2021/12/17 21:57:30;;;;;;;45.58;15.73;;;;;;;;;;5071690;27;95389;-74
2021/12/17 21:59:56;;;;;;;49.28;16.38;;;;;;;;;;5077221;27;96862;-73
2021/12/17 22:02:23;;;;;;;51.40;15.75;;;;;;;;;;5076795;27;97300;-74
2021/12/17 22:04:50;;;;;;;54.40;16.48;;;;;;;;;;5073548;27;95308;-74
2021/12/17 22:07:17;;;;;;;51.05;15.98;;;;;;;;;;5074862;27;97054;-74
2021/12/17 22:09:44;;;;;;;45.80;15.70;;;;;;;;;;5097184;27;97296;-74
2021/12/17 22:12:14;;;;;;;51.42;15.75;;;;;;;;;;5079703;27;96796;-74
2021/12/17 22:14:40;;;;;;;52.88;16.08;;;;;;;;;;5073789;27;97578;-74
2021/12/17 22:17:07;;;;;;;48.30;15.40;;;;;;;;;;5081307;27;95191;-73
2021/12/17 22:19:43;;;;;;;53.08;16.45;;;;;;;;;;5073540;27;97156;-73
2021/12/17 22:22:10;;;;;;;52.30;15.68;;;;;;;;;;5073166;27;97249;-73
2021/12/17 22:24:36;;;;;;;57.38;16.80;;;;;;;;;;5061484;27;95841;-74
2021/12/17 22:27:03;;;;;;;61.25;18.63;;;;;;;;;;5070128;27;96975;-74
2021/12/17 22:29:32;;;;;;;59.28;18.30;;;;;;;;;;5079589;27;97508;-73
2021/12/17 22:31:59;;;;;;;64.45;20.10;;;;;;;;;;5075789;27;96908;-73
2021/12/17 22:34:26;;;;;;;70.43;21.27;;;;;;;;;;5075094;27;97433;-73
2021/12/17 22:36:52;;;;;;;65.55;19.58;;;;;;;;;;5070962;27;96384;-73
2021/12/17 22:39:19;;;;;;;56.08;18.38;;;;;;;;;;5062368;27;95824;-74
2021/12/17 22:41:47;;;;;;;51.80;16.52;;;;;;;;;;5067453;27;95235;-74
2021/12/17 22:44:15;;;;;;;59.90;17.05;;;;;;;;;;5069018;27;95124;-74
2021/12/17 22:46:43;;;;;;;55.88;18.13;;;;;;;;;;5087289;27;98041;-74
2021/12/17 22:49:15;;;;;;;50.78;16.70;;;;;;;;;;5092835;27;97449;-74
2021/12/17 22:51:51;;;;;;;58.38;17.00;;;;;;;;;;5068928;27;95305;-75
2021/12/17 22:54:22;;;;;;;49.97;16.30;;;;;;;;;;5059434;27;99139;-72
2021/12/17 22:56:53;;;;;;;56.10;15.93;;;;;;;;;;5065836;27;95924;-74
2021/12/17 22:59:26;;;;;;;52.63;15.93;;;;;;;;;;5085130;27;95829;-72
2021/12/17 23:01:54;;;;;;;52.70;16.42;;;;;;;;;;5093853;27;97270;-72
2021/12/17 23:04:26;;;;;;;50.92;16.15;;;;;;;;;;5077442;27;95695;-73
2021/12/17 23:07:28;;;;;;;47.20;16.70;;;;;;;;;;5082712;27;95902;-73
2021/12/17 23:09:45;;;;;;;48.38;15.95;;;;;;;;;;5091809;27;97475;-73
2021/12/17 23:12:16;;;;;;;44.50;14.77;;;;;;;;;;5081954;27;95381;-74
2021/12/17 23:14:50;;;;;;;43.05;13.65;;;;;;;;;;5095513;27;95631;-73
2021/12/17 23:17:23;;;;;;;43.70;13.68;;;;;;;;;;5082050;27;95119;-73
2021/12/17 23:19:52;;;;;;;41.25;13.70;;;;;;;;;;5094411;27;96529;-73
2021/12/17 23:22:24;;;;;;;35.70;12.15;;;;;;;;;;5080044;27;97738;-73
2021/12/17 23:24:54;;;;;;;39.15;12.60;;;;;;;;;;5073840;27;95291;-73
2021/12/17 23:27:25;;;;;;;34.05;11.90;;;;;;;;;;5073001;27;97244;-72
2021/12/17 23:29:53;;;;;;;31.63;12.25;;;;;;;;;;5073615;27;96573;-73
2021/12/17 23:32:23;;;;;;;39.25;12.07;;;;;;;;;;5069555;27;95380;-73
2021/12/17 23:34:57;;;;;;;34.80;11.20;;;;;;;;;;5082286;27;99357;-73
2021/12/17 23:37:24;;;;;;;32.45;10.82;;;;;;;;;;5076417;27;97261;-73
2021/12/17 23:39:51;;;;;;;40.20;12.50;;;;;;;;;;5074083;27;96955;-73
2021/12/17 23:42:19;;;;;;;35.45;12.25;;;;;;;;;;5072341;27;97581;-73
2021/12/17 23:44:49;;;;;;;39.55;13.60;;;;;;;;;;5072803;27;95239;-72
2021/12/17 23:47:15;;;;;;;38.00;13.25;;;;;;;;;;5074519;27;97539;-74
2021/12/17 23:49:42;;;;;;;42.90;13.82;;;;;;;;;;5073392;27;97359;-74
2021/12/17 23:52:08;;;;;;;41.83;13.77;;;;;;;;;;5073930;27;95238;-75
2021/12/17 23:54:34;;;;;;;40.83;12.18;;;;;;;;;;5073251;27;97100;-74
2021/12/17 23:57:02;;;;;;;42.25;13.23;;;;;;;;;;5078472;27;96976;-74
2021/12/17 23:59:29;;;;;;;37.50;12.65;;;;;;;;;;5089150;27;95217;-74
